メインページ
METAR-TAF:

METAR-TAF

空港 :

ベレン, パラー州, ブラジル

緯度: 01-23S, 経度: 048-29W, 海抜: 16m

現時点の気象観測

当レポートは25分前の21:00(UTC)に作成
北/北東の風 7kt
気温 28°C
湿度 74%
気圧 1009 hPa
視程10km以上
高度2500ftの雲は散在している
高度3000ftの雲はほとんどない, 塔状積雲.
高度10000ftの千切れ雲あり

METAR: SBBE 202100Z 02007KT 9999 SCT025 FEW030TCU BKN100 28/23 Q1009

時間: 18:25 (21:25 UTC)

予報

当レポートは5時間25分前の16:00(UTC)に作成
予報は20日の 18時(UTC)から 21日の 18時(UTC)まで有効
の風 10kt
視程10km以上
高度3500ftの千切れ雲あり
高度4000ftの雲はほとんどない, 塔状積雲.
確率 30% :
20日の 18時(UTC)から 20日の 21時(UTC)まで一時的に
視程: 5000m
高度3500ftの千切れ雲あり
高度4000ftの雲はほとんどない, 積乱雲.
激しい雷雨, 雨
20日の 21時(UTC)から 20日の 23時(UTC)まで徐々に
視程10km以上
高度3000ftの雲は散在している
20日の 23時(UTC)から 21日の 01時(UTC)まで徐々に
東/北東の風 5kt
視程10km以上
1,500メートル以下は雲なし、積乱雲なし
21日の 09時(UTC)から 21日の 11時(UTC)まで徐々に
東/北東の風 10kt
高度1700ftの雲は散在している
21日の 13時(UTC)から 21日の 14時(UTC)まで徐々に
高度3000ftの千切れ雲あり
21日の 16時(UTC)から 21日の 17時(UTC)まで徐々に
高度2500ftの千切れ雲あり
高度3000ftの雲はほとんどない, 塔状積雲.

TAF: SBBE 201600Z 2018/2118 10010KT 9999 BKN035 FEW040TCU TN24/2106Z T X32/2115Z PROB30 TEMPO 2018/2021 5000 TSRA BKN035 FEW040CB BECMG 2021/2023 040 05KT 9999 SCT030 BECMG 2023/2101 07005KT CAVOK BECMG 2109/2111 07010KT 99 99 SCT017 BECMG 2113/2114 BKN030 BECMG 2116/2117 BKN025 FEW030TCU RMK P CQ

4,000以上の空港の気象観測と天気予報(METAR報とTAF報)

利用可能な観測所は地図上に黄色い丸と赤い丸で示す。

丸の上にカーソルを重ねると観測所名を参照できる。

次にクリックすると気象観測と天気予報を参照できる。

マップの切り替え:黒色「×」印の緑ボタンをクリックして拡大、「-」印の緑ボタンをクリックして縮小、緑色の三角印をクリックして隣りの地図に切り替え


METAR-TAF: